Bellaire, Michigan
Current Conditions -  °F | °C
As of 10:18 PM on Wednesday 22 Oct 2014 (Local Time) from KACB Reporting Station
Clear Clear  
Wind Chill: 32°   Ceiling: Unl
Heat Index: 32°   Visibility: 7mi
Dew Point: 31°   Wind: 0mph
Humidity: 96%   Direction: NA
Pressure: 30.3"   Gusts: NA
Location:  44.98°N, 85.21°W
Report Text: KACB 230218Z AUTO 00000KT 7SM CLR 00/M01 A3030 RMK AO2 T10021008
Loading
Personal Weather Stations






























Interactive Weather Map
Tropical Storm Tracking
New forecast layout! Learn more

10-Day Weather Forecast

Advertisements
Track Severe Weather on mobile